sensor_id;sensor_type;location;lat;lon;timestamp;P1;durP1;ratioP1;P2;durP2;ratioP2
5339;SDS011;2692;48.848;8.924;2022-10-19T00:01:44;2.40;;;2.10;;
5339;SDS011;2692;48.848;8.924;2022-10-19T00:04:09;4.93;;;2.37;;
5339;SDS011;2692;48.848;8.924;2022-10-19T00:06:35;4.23;;;2.77;;
5339;SDS011;2692;48.848;8.924;2022-10-19T00:09:08;4.50;;;2.60;;
5339;SDS011;2692;48.848;8.924;2022-10-19T00:11:36;3.60;;;1.60;;
5339;SDS011;2692;48.848;8.924;2022-10-19T00:14:03;5.97;;;3.10;;
5339;SDS011;2692;48.848;8.924;2022-10-19T00:16:31;3.73;;;2.07;;
5339;SDS011;2692;48.848;8.924;2022-10-19T00:18:58;4.47;;;2.40;;
5339;SDS011;2692;48.848;8.924;2022-10-19T00:21:25;2.90;;;2.20;;
5339;SDS011;2692;48.848;8.924;2022-10-19T00:23:50;3.23;;;1.60;;
5339;SDS011;2692;48.848;8.924;2022-10-19T00:26:15;4.33;;;2.37;;
5339;SDS011;2692;48.848;8.924;2022-10-19T00:28:41;2.40;;;1.40;;
5339;SDS011;2692;48.848;8.924;2022-10-19T00:31:08;3.87;;;1.97;;
5339;SDS011;2692;48.848;8.924;2022-10-19T00:33:37;5.00;;;2.50;;
5339;SDS011;2692;48.848;8.924;2022-10-19T00:36:03;2.97;;;1.93;;
5339;SDS011;2692;48.848;8.924;2022-10-19T00:38:29;2.87;;;2.00;;
5339;SDS011;2692;48.848;8.924;2022-10-19T00:40:54;3.00;;;2.37;;
5339;SDS011;2692;48.848;8.924;2022-10-19T00:43:24;2.80;;;1.73;;
5339;SDS011;2692;48.848;8.924;2022-10-19T00:45:51;5.00;;;2.40;;
5339;SDS011;2692;48.848;8.924;2022-10-19T00:48:18;4.93;;;3.03;;
5339;SDS011;2692;48.848;8.924;2022-10-19T00:50:47;4.23;;;2.43;;
5339;SDS011;2692;48.848;8.924;2022-10-19T00:53:14;6.07;;;2.47;;
5339;SDS011;2692;48.848;8.924;2022-10-19T00:55:40;2.80;;;1.83;;
5339;SDS011;2692;48.848;8.924;2022-10-19T00:58:06;2.70;;;1.90;;
5339;SDS011;2692;48.848;8.924;2022-10-19T01:00:31;3.53;;;2.00;;
5339;SDS011;2692;48.848;8.924;2022-10-19T01:02:58;6.33;;;3.00;;
5339;SDS011;2692;48.848;8.924;2022-10-19T01:05:23;3.80;;;2.03;;
5339;SDS011;2692;48.848;8.924;2022-10-19T01:07:49;3.63;;;2.50;;
5339;SDS011;2692;48.848;8.924;2022-10-19T01:10:14;7.47;;;2.40;;
5339;SDS011;2692;48.848;8.924;2022-10-19T01:13:42;2.40;;;1.67;;
5339;SDS011;2692;48.848;8.924;2022-10-19T01:15:45;2.77;;;1.77;;
5339;SDS011;2692;48.848;8.924;2022-10-19T01:18:24;4.13;;;2.17;;
5339;SDS011;2692;48.848;8.924;2022-10-19T01:24:10;2.30;;;2.00;;
5339;SDS011;2692;48.848;8.924;2022-10-19T01:26:58;6.10;;;2.83;;
5339;SDS011;2692;48.848;8.924;2022-10-19T01:29:50;4.57;;;2.73;;
5339;SDS011;2692;48.848;8.924;2022-10-19T01:32:22;4.83;;;2.33;;
5339;SDS011;2692;48.848;8.924;2022-10-19T01:34:56;3.97;;;2.07;;
5339;SDS011;2692;48.848;8.924;2022-10-19T01:40:03;7.73;;;2.73;;
5339;SDS011;2692;48.848;8.924;2022-10-19T01:42:36;6.33;;;2.87;;
5339;SDS011;2692;48.848;8.924;2022-10-19T01:45:16;5.90;;;2.50;;
5339;SDS011;2692;48.848;8.924;2022-10-19T01:47:47;6.67;;;2.50;;
5339;SDS011;2692;48.848;8.924;2022-10-19T01:53:09;4.60;;;2.00;;
5339;SDS011;2692;48.848;8.924;2022-10-19T01:55:36;4.53;;;2.50;;
5339;SDS011;2692;48.848;8.924;2022-10-19T01:58:06;4.07;;;2.37;;
5339;SDS011;2692;48.848;8.924;2022-10-19T02:00:34;2.73;;;2.23;;
5339;SDS011;2692;48.848;8.924;2022-10-19T02:02:59;15.73;;;2.63;;
5339;SDS011;2692;48.848;8.924;2022-10-19T02:05:27;3.10;;;2.03;;
5339;SDS011;2692;48.848;8.924;2022-10-19T02:07:57;4.20;;;2.10;;
5339;SDS011;2692;48.848;8.924;2022-10-19T02:10:24;2.57;;;2.23;;
5339;SDS011;2692;48.848;8.924;2022-10-19T02:12:50;5.20;;;2.50;;
5339;SDS011;2692;48.848;8.924;2022-10-19T02:15:17;5.00;;;2.90;;
5339;SDS011;2692;48.848;8.924;2022-10-19T02:17:47;7.53;;;2.87;;
5339;SDS011;2692;48.848;8.924;2022-10-19T02:20:14;15.27;;;3.70;;
5339;SDS011;2692;48.848;8.924;2022-10-19T02:22:40;9.00;;;3.27;;
5339;SDS011;2692;48.848;8.924;2022-10-19T02:25:06;11.30;;;6.13;;
5339;SDS011;2692;48.848;8.924;2022-10-19T02:27:32;7.33;;;4.60;;
5339;SDS011;2692;48.848;8.924;2022-10-19T02:29:58;10.97;;;6.10;;
5339;SDS011;2692;48.848;8.924;2022-10-19T02:32:24;13.60;;;6.10;;
5339;SDS011;2692;48.848;8.924;2022-10-19T02:34:50;14.40;;;5.90;;
5339;SDS011;2692;48.848;8.924;2022-10-19T02:37:15;9.50;;;4.47;;
5339;SDS011;2692;48.848;8.924;2022-10-19T02:39:40;21.03;;;7.70;;
5339;SDS011;2692;48.848;8.924;2022-10-19T02:42:09;15.53;;;6.90;;
5339;SDS011;2692;48.848;8.924;2022-10-19T02:44:48;15.40;;;7.43;;
5339;SDS011;2692;48.848;8.924;2022-10-19T02:47:24;19.40;;;6.20;;
5339;SDS011;2692;48.848;8.924;2022-10-19T02:49:51;14.13;;;6.97;;
5339;SDS011;2692;48.848;8.924;2022-10-19T02:52:16;17.23;;;6.43;;
5339;SDS011;2692;48.848;8.924;2022-10-19T02:54:42;13.43;;;6.97;;
5339;SDS011;2692;48.848;8.924;2022-10-19T02:57:18;17.63;;;7.53;;
5339;SDS011;2692;48.848;8.924;2022-10-19T02:59:45;10.30;;;6.20;;
5339;SDS011;2692;48.848;8.924;2022-10-19T03:02:11;13.70;;;8.13;;
5339;SDS011;2692;48.848;8.924;2022-10-19T03:04:36;10.33;;;6.40;;
5339;SDS011;2692;48.848;8.924;2022-10-19T03:07:02;30.33;;;8.50;;
5339;SDS011;2692;48.848;8.924;2022-10-19T03:09:27;29.60;;;7.87;;
5339;SDS011;2692;48.848;8.924;2022-10-19T03:11:54;12.27;;;6.53;;
5339;SDS011;2692;48.848;8.924;2022-10-19T03:14:20;21.23;;;7.57;;
5339;SDS011;2692;48.848;8.924;2022-10-19T03:16:45;12.40;;;8.10;;
5339;SDS011;2692;48.848;8.924;2022-10-19T03:19:10;9.33;;;6.57;;
5339;SDS011;2692;48.848;8.924;2022-10-19T03:21:36;21.20;;;10.17;;
5339;SDS011;2692;48.848;8.924;2022-10-19T03:24:01;18.23;;;7.63;;
5339;SDS011;2692;48.848;8.924;2022-10-19T03:26:26;17.20;;;6.93;;
5339;SDS011;2692;48.848;8.924;2022-10-19T03:28:51;9.33;;;7.23;;
5339;SDS011;2692;48.848;8.924;2022-10-19T03:31:17;20.10;;;6.80;;
5339;SDS011;2692;48.848;8.924;2022-10-19T03:33:43;21.00;;;6.83;;
5339;SDS011;2692;48.848;8.924;2022-10-19T03:36:12;11.90;;;6.70;;
5339;SDS011;2692;48.848;8.924;2022-10-19T03:38:37;13.10;;;8.33;;
5339;SDS011;2692;48.848;8.924;2022-10-19T03:41:04;17.03;;;8.07;;
5339;SDS011;2692;48.848;8.924;2022-10-19T03:43:30;10.60;;;7.13;;
5339;SDS011;2692;48.848;8.924;2022-10-19T03:45:55;10.77;;;6.90;;
5339;SDS011;2692;48.848;8.924;2022-10-19T03:48:21;11.77;;;6.83;;
5339;SDS011;2692;48.848;8.924;2022-10-19T03:50:46;10.60;;;6.80;;
5339;SDS011;2692;48.848;8.924;2022-10-19T03:53:11;10.70;;;7.03;;
5339;SDS011;2692;48.848;8.924;2022-10-19T03:55:36;13.73;;;6.77;;
5339;SDS011;2692;48.848;8.924;2022-10-19T03:58:02;6.23;;;5.23;;
5339;SDS011;2692;48.848;8.924;2022-10-19T04:00:27;8.27;;;6.13;;
5339;SDS011;2692;48.848;8.924;2022-10-19T04:02:52;9.20;;;5.70;;
5339;SDS011;2692;48.848;8.924;2022-10-19T04:05:18;9.13;;;6.60;;
5339;SDS011;2692;48.848;8.924;2022-10-19T04:07:43;14.10;;;7.17;;
5339;SDS011;2692;48.848;8.924;2022-10-19T04:10:08;16.20;;;8.70;;
5339;SDS011;2692;48.848;8.924;2022-10-19T04:12:33;9.03;;;5.60;;
5339;SDS011;2692;48.848;8.924;2022-10-19T04:14:59;13.60;;;5.27;;
5339;SDS011;2692;48.848;8.924;2022-10-19T04:17:24;9.60;;;5.70;;
5339;SDS011;2692;48.848;8.924;2022-10-19T04:19:49;7.67;;;4.53;;
5339;SDS011;2692;48.848;8.924;2022-10-19T04:22:15;7.70;;;5.27;;
5339;SDS011;2692;48.848;8.924;2022-10-19T04:24:40;16.53;;;5.90;;
5339;SDS011;2692;48.848;8.924;2022-10-19T04:27:05;10.53;;;4.70;;
5339;SDS011;2692;48.848;8.924;2022-10-19T04:29:30;7.33;;;5.23;;
5339;SDS011;2692;48.848;8.924;2022-10-19T04:31:56;5.30;;;4.70;;
5339;SDS011;2692;48.848;8.924;2022-10-19T04:34:21;7.53;;;4.63;;
5339;SDS011;2692;48.848;8.924;2022-10-19T04:36:48;9.37;;;5.80;;
5339;SDS011;2692;48.848;8.924;2022-10-19T04:39:13;6.57;;;4.20;;
5339;SDS011;2692;48.848;8.924;2022-10-19T04:41:39;11.60;;;6.70;;
5339;SDS011;2692;48.848;8.924;2022-10-19T04:44:04;20.30;;;6.90;;
5339;SDS011;2692;48.848;8.924;2022-10-19T04:46:32;10.40;;;5.20;;
5339;SDS011;2692;48.848;8.924;2022-10-19T04:48:58;8.43;;;5.33;;
5339;SDS011;2692;48.848;8.924;2022-10-19T04:51:23;9.60;;;5.13;;
5339;SDS011;2692;48.848;8.924;2022-10-19T04:53:49;11.93;;;6.10;;
5339;SDS011;2692;48.848;8.924;2022-10-19T04:56:16;8.23;;;5.47;;
5339;SDS011;2692;48.848;8.924;2022-10-19T04:58:43;9.17;;;5.13;;
5339;SDS011;2692;48.848;8.924;2022-10-19T05:01:19;11.60;;;6.37;;
5339;SDS011;2692;48.848;8.924;2022-10-19T05:03:45;9.97;;;5.37;;
5339;SDS011;2692;48.848;8.924;2022-10-19T05:06:11;4.80;;;3.40;;
5339;SDS011;2692;48.848;8.924;2022-10-19T05:08:37;8.80;;;5.30;;
5339;SDS011;2692;48.848;8.924;2022-10-19T05:11:05;19.83;;;5.67;;
5339;SDS011;2692;48.848;8.924;2022-10-19T05:13:33;7.53;;;5.20;;
5339;SDS011;2692;48.848;8.924;2022-10-19T05:15:59;8.47;;;5.60;;
5339;SDS011;2692;48.848;8.924;2022-10-19T05:18:25;16.60;;;6.67;;
5339;SDS011;2692;48.848;8.924;2022-10-19T05:20:50;10.60;;;6.30;;
5339;SDS011;2692;48.848;8.924;2022-10-19T05:23:16;6.10;;;4.50;;
5339;SDS011;2692;48.848;8.924;2022-10-19T05:25:41;5.73;;;4.53;;
5339;SDS011;2692;48.848;8.924;2022-10-19T05:28:06;11.23;;;5.97;;
5339;SDS011;2692;48.848;8.924;2022-10-19T05:30:32;9.43;;;5.70;;
5339;SDS011;2692;48.848;8.924;2022-10-19T05:32:57;11.60;;;7.33;;
5339;SDS011;2692;48.848;8.924;2022-10-19T05:35:22;10.53;;;6.83;;
5339;SDS011;2692;48.848;8.924;2022-10-19T05:37:47;16.43;;;7.33;;
5339;SDS011;2692;48.848;8.924;2022-10-19T05:40:13;11.20;;;6.20;;
5339;SDS011;2692;48.848;8.924;2022-10-19T05:42:38;12.40;;;7.40;;
5339;SDS011;2692;48.848;8.924;2022-10-19T05:45:03;11.83;;;6.97;;
5339;SDS011;2692;48.848;8.924;2022-10-19T05:47:30;15.17;;;7.20;;
5339;SDS011;2692;48.848;8.924;2022-10-19T05:49:56;14.87;;;7.50;;
5339;SDS011;2692;48.848;8.924;2022-10-19T05:52:21;12.90;;;7.37;;
5339;SDS011;2692;48.848;8.924;2022-10-19T05:54:46;15.10;;;7.90;;
5339;SDS011;2692;48.848;8.924;2022-10-19T05:57:11;20.17;;;8.60;;
5339;SDS011;2692;48.848;8.924;2022-10-19T05:59:37;12.60;;;7.73;;
5339;SDS011;2692;48.848;8.924;2022-10-19T06:02:02;14.13;;;7.93;;
5339;SDS011;2692;48.848;8.924;2022-10-19T06:04:27;14.43;;;8.10;;
5339;SDS011;2692;48.848;8.924;2022-10-19T06:06:53;16.60;;;8.93;;
5339;SDS011;2692;48.848;8.924;2022-10-19T06:09:18;14.87;;;7.63;;
5339;SDS011;2692;48.848;8.924;2022-10-19T06:11:43;10.60;;;7.00;;
5339;SDS011;2692;48.848;8.924;2022-10-19T06:14:13;14.57;;;6.97;;
5339;SDS011;2692;48.848;8.924;2022-10-19T06:16:39;10.40;;;7.67;;
5339;SDS011;2692;48.848;8.924;2022-10-19T06:19:04;13.03;;;6.80;;
5339;SDS011;2692;48.848;8.924;2022-10-19T06:21:30;17.50;;;8.20;;
5339;SDS011;2692;48.848;8.924;2022-10-19T06:23:57;14.83;;;6.03;;
5339;SDS011;2692;48.848;8.924;2022-10-19T06:26:24;8.67;;;5.97;;
5339;SDS011;2692;48.848;8.924;2022-10-19T06:28:50;15.07;;;7.37;;
5339;SDS011;2692;48.848;8.924;2022-10-19T06:31:18;24.70;;;7.87;;
5339;SDS011;2692;48.848;8.924;2022-10-19T06:33:44;10.10;;;7.20;;
5339;SDS011;2692;48.848;8.924;2022-10-19T06:36:14;10.60;;;6.43;;
5339;SDS011;2692;48.848;8.924;2022-10-19T06:38:43;10.77;;;6.13;;
5339;SDS011;2692;48.848;8.924;2022-10-19T06:41:09;25.00;;;5.83;;
5339;SDS011;2692;48.848;8.924;2022-10-19T06:43:34;13.40;;;5.93;;
5339;SDS011;2692;48.848;8.924;2022-10-19T06:46:07;15.70;;;6.93;;
5339;SDS011;2692;48.848;8.924;2022-10-19T06:48:33;11.50;;;6.90;;
5339;SDS011;2692;48.848;8.924;2022-10-19T06:51:00;8.00;;;5.00;;
5339;SDS011;2692;48.848;8.924;2022-10-19T06:53:26;16.03;;;6.50;;
5339;SDS011;2692;48.848;8.924;2022-10-19T06:55:55;11.30;;;6.10;;
5339;SDS011;2692;48.848;8.924;2022-10-19T06:58:22;13.67;;;7.00;;
5339;SDS011;2692;48.848;8.924;2022-10-19T07:00:59;9.77;;;6.47;;
5339;SDS011;2692;48.848;8.924;2022-10-19T07:03:25;14.27;;;7.50;;
5339;SDS011;2692;48.848;8.924;2022-10-19T07:05:54;7.93;;;6.83;;
5339;SDS011;2692;48.848;8.924;2022-10-19T07:08:21;13.63;;;7.80;;
5339;SDS011;2692;48.848;8.924;2022-10-19T07:10:50;11.40;;;6.90;;
5339;SDS011;2692;48.848;8.924;2022-10-19T07:13:16;13.80;;;8.00;;
5339;SDS011;2692;48.848;8.924;2022-10-19T07:15:41;12.57;;;8.13;;
5339;SDS011;2692;48.848;8.924;2022-10-19T07:18:07;12.80;;;8.23;;
5339;SDS011;2692;48.848;8.924;2022-10-19T07:20:32;10.33;;;7.40;;
5339;SDS011;2692;48.848;8.924;2022-10-19T07:22:57;20.40;;;8.63;;
5339;SDS011;2692;48.848;8.924;2022-10-19T07:25:22;10.37;;;8.13;;
5339;SDS011;2692;48.848;8.924;2022-10-19T07:27:48;12.17;;;8.77;;
5339;SDS011;2692;48.848;8.924;2022-10-19T07:30:13;17.57;;;7.87;;
5339;SDS011;2692;48.848;8.924;2022-10-19T07:32:38;9.10;;;6.90;;
5339;SDS011;2692;48.848;8.924;2022-10-19T07:35:04;25.23;;;7.63;;
5339;SDS011;2692;48.848;8.924;2022-10-19T07:37:29;15.10;;;7.67;;
5339;SDS011;2692;48.848;8.924;2022-10-19T07:39:55;17.97;;;9.90;;
5339;SDS011;2692;48.848;8.924;2022-10-19T07:42:20;13.53;;;7.60;;
5339;SDS011;2692;48.848;8.924;2022-10-19T07:44:45;16.23;;;9.33;;
5339;SDS011;2692;48.848;8.924;2022-10-19T07:47:10;14.00;;;7.80;;
5339;SDS011;2692;48.848;8.924;2022-10-19T07:49:36;14.57;;;6.80;;
5339;SDS011;2692;48.848;8.924;2022-10-19T07:52:01;12.83;;;7.20;;
5339;SDS011;2692;48.848;8.924;2022-10-19T07:54:26;14.33;;;8.43;;
5339;SDS011;2692;48.848;8.924;2022-10-19T07:56:51;16.27;;;8.10;;
5339;SDS011;2692;48.848;8.924;2022-10-19T07:59:17;9.77;;;6.93;;
5339;SDS011;2692;48.848;8.924;2022-10-19T08:01:42;17.00;;;7.33;;
5339;SDS011;2692;48.848;8.924;2022-10-19T08:04:08;12.97;;;6.93;;
5339;SDS011;2692;48.848;8.924;2022-10-19T08:06:34;10.30;;;6.40;;
5339;SDS011;2692;48.848;8.924;2022-10-19T08:09:00;10.50;;;5.63;;
5339;SDS011;2692;48.848;8.924;2022-10-19T08:11:29;11.30;;;6.53;;
5339;SDS011;2692;48.848;8.924;2022-10-19T08:13:56;13.40;;;6.80;;
5339;SDS011;2692;48.848;8.924;2022-10-19T08:16:31;13.10;;;6.70;;
5339;SDS011;2692;48.848;8.924;2022-10-19T08:19:01;11.70;;;6.50;;
5339;SDS011;2692;48.848;8.924;2022-10-19T08:21:28;9.70;;;6.00;;
5339;SDS011;2692;48.848;8.924;2022-10-19T08:23:54;16.70;;;5.93;;
5339;SDS011;2692;48.848;8.924;2022-10-19T08:26:20;11.23;;;6.07;;
5339;SDS011;2692;48.848;8.924;2022-10-19T08:28:46;10.37;;;5.30;;
5339;SDS011;2692;48.848;8.924;2022-10-19T08:33:40;7.97;;;5.30;;
5339;SDS011;2692;48.848;8.924;2022-10-19T08:36:06;10.77;;;5.33;;
5339;SDS011;2692;48.848;8.924;2022-10-19T08:38:33;7.43;;;4.30;;
5339;SDS011;2692;48.848;8.924;2022-10-19T08:41:03;9.90;;;5.90;;
5339;SDS011;2692;48.848;8.924;2022-10-19T08:43:33;7.47;;;4.80;;
5339;SDS011;2692;48.848;8.924;2022-10-19T08:46:08;7.03;;;4.90;;
5339;SDS011;2692;48.848;8.924;2022-10-19T08:48:57;8.03;;;5.37;;
5339;SDS011;2692;48.848;8.924;2022-10-19T08:51:24;8.47;;;5.37;;
5339;SDS011;2692;48.848;8.924;2022-10-19T08:53:53;9.03;;;4.73;;
5339;SDS011;2692;48.848;8.924;2022-10-19T08:56:22;11.33;;;4.60;;
5339;SDS011;2692;48.848;8.924;2022-10-19T08:58:55;5.93;;;3.33;;
5339;SDS011;2692;48.848;8.924;2022-10-19T09:01:33;7.20;;;4.00;;
5339;SDS011;2692;48.848;8.924;2022-10-19T09:04:01;41.67;;;5.77;;
5339;SDS011;2692;48.848;8.924;2022-10-19T09:08:58;13.10;;;5.27;;
5339;SDS011;2692;48.848;8.924;2022-10-19T09:11:24;9.60;;;5.30;;
5339;SDS011;2692;48.848;8.924;2022-10-19T09:13:55;8.70;;;5.80;;
5339;SDS011;2692;48.848;8.924;2022-10-19T09:16:30;10.47;;;5.30;;
5339;SDS011;2692;48.848;8.924;2022-10-19T09:18:55;10.97;;;5.03;;
5339;SDS011;2692;48.848;8.924;2022-10-19T09:21:22;5.00;;;3.80;;
5339;SDS011;2692;48.848;8.924;2022-10-19T09:26:20;6.70;;;4.30;;
5339;SDS011;2692;48.848;8.924;2022-10-19T09:28:48;10.93;;;5.10;;
5339;SDS011;2692;48.848;8.924;2022-10-19T09:31:30;11.03;;;5.40;;
5339;SDS011;2692;48.848;8.924;2022-10-19T09:34:02;10.57;;;5.43;;
5339;SDS011;2692;48.848;8.924;2022-10-19T09:36:40;7.13;;;4.70;;
5339;SDS011;2692;48.848;8.924;2022-10-19T09:39:11;5.87;;;4.17;;
5339;SDS011;2692;48.848;8.924;2022-10-19T09:41:42;12.27;;;4.90;;
5339;SDS011;2692;48.848;8.924;2022-10-19T09:44:08;9.20;;;5.30;;
5339;SDS011;2692;48.848;8.924;2022-10-19T09:46:47;8.67;;;4.70;;
5339;SDS011;2692;48.848;8.924;2022-10-19T09:49:45;17.53;;;3.90;;
5339;SDS011;2692;48.848;8.924;2022-10-19T09:54:58;3.53;;;2.80;;
5339;SDS011;2692;48.848;8.924;2022-10-19T09:57:47;6.00;;;3.50;;
5339;SDS011;2692;48.848;8.924;2022-10-19T10:00:35;6.17;;;3.83;;
5339;SDS011;2692;48.848;8.924;2022-10-19T10:03:03;10.90;;;3.50;;
5339;SDS011;2692;48.848;8.924;2022-10-19T10:05:37;5.07;;;2.80;;
5339;SDS011;2692;48.848;8.924;2022-10-19T10:08:03;8.77;;;3.27;;
5339;SDS011;2692;48.848;8.924;2022-10-19T10:10:35;11.83;;;3.20;;
5339;SDS011;2692;48.848;8.924;2022-10-19T10:13:02;7.87;;;3.50;;
5339;SDS011;2692;48.848;8.924;2022-10-19T10:15:29;5.93;;;3.00;;
5339;SDS011;2692;48.848;8.924;2022-10-19T10:18:05;8.30;;;4.10;;
5339;SDS011;2692;48.848;8.924;2022-10-19T10:20:30;5.93;;;3.10;;
5339;SDS011;2692;48.848;8.924;2022-10-19T10:23:03;6.97;;;3.53;;
5339;SDS011;2692;48.848;8.924;2022-10-19T10:25:33;7.13;;;3.83;;
5339;SDS011;2692;48.848;8.924;2022-10-19T10:28:13;8.13;;;4.10;;
5339;SDS011;2692;48.848;8.924;2022-10-19T10:30:42;5.50;;;3.70;;
5339;SDS011;2692;48.848;8.924;2022-10-19T10:33:09;6.03;;;3.80;;
5339;SDS011;2692;48.848;8.924;2022-10-19T10:35:45;5.47;;;3.50;;
5339;SDS011;2692;48.848;8.924;2022-10-19T10:38:17;7.43;;;2.80;;
5339;SDS011;2692;48.848;8.924;2022-10-19T10:40:56;7.33;;;3.27;;
5339;SDS011;2692;48.848;8.924;2022-10-19T10:43:34;7.43;;;3.93;;
5339;SDS011;2692;48.848;8.924;2022-10-19T10:46:03;10.07;;;3.80;;
5339;SDS011;2692;48.848;8.924;2022-10-19T10:48:32;4.83;;;3.27;;
5339;SDS011;2692;48.848;8.924;2022-10-19T10:51:04;6.07;;;3.50;;
5339;SDS011;2692;48.848;8.924;2022-10-19T10:53:40;6.97;;;3.90;;
5339;SDS011;2692;48.848;8.924;2022-10-19T10:59:14;9.40;;;4.20;;
5339;SDS011;2692;48.848;8.924;2022-10-19T11:01:46;10.73;;;3.03;;
5339;SDS011;2692;48.848;8.924;2022-10-19T11:04:19;7.77;;;3.00;;
5339;SDS011;2692;48.848;8.924;2022-10-19T11:06:50;4.77;;;3.27;;
5339;SDS011;2692;48.848;8.924;2022-10-19T11:11:56;4.50;;;2.60;;
5339;SDS011;2692;48.848;8.924;2022-10-19T11:14:36;3.60;;;2.23;;
5339;SDS011;2692;48.848;8.924;2022-10-19T11:17:11;8.13;;;3.13;;
5339;SDS011;2692;48.848;8.924;2022-10-19T11:19:58;6.07;;;3.50;;
5339;SDS011;2692;48.848;8.924;2022-10-19T11:22:26;6.03;;;2.97;;
5339;SDS011;2692;48.848;8.924;2022-10-19T11:30:28;5.00;;;1.60;;
5339;SDS011;2692;48.848;8.924;2022-10-19T11:33:03;3.00;;;1.83;;
5339;SDS011;2692;48.848;8.924;2022-10-19T11:35:50;4.37;;;1.40;;
5339;SDS011;2692;48.848;8.924;2022-10-19T11:38:37;3.43;;;1.73;;
5339;SDS011;2692;48.848;8.924;2022-10-19T11:49:53;3.53;;;1.47;;
5339;SDS011;2692;48.848;8.924;2022-10-19T11:52:36;2.87;;;1.50;;
5339;SDS011;2692;48.848;8.924;2022-10-19T11:57:48;2.57;;;1.70;;
5339;SDS011;2692;48.848;8.924;2022-10-19T12:00:18;2.33;;;1.23;;
5339;SDS011;2692;48.848;8.924;2022-10-19T12:02:49;3.03;;;1.70;;
5339;SDS011;2692;48.848;8.924;2022-10-19T12:08:35;2.60;;;2.17;;
5339;SDS011;2692;48.848;8.924;2022-10-19T12:13:42;3.17;;;1.57;;
5339;SDS011;2692;48.848;8.924;2022-10-19T12:16:10;3.90;;;1.20;;
5339;SDS011;2692;48.848;8.924;2022-10-19T12:21:21;2.80;;;1.57;;
5339;SDS011;2692;48.848;8.924;2022-10-19T12:23:48;3.33;;;1.00;;
5339;SDS011;2692;48.848;8.924;2022-10-19T12:26:15;4.40;;;1.80;;
5339;SDS011;2692;48.848;8.924;2022-10-19T12:28:50;3.37;;;1.37;;
5339;SDS011;2692;48.848;8.924;2022-10-19T12:31:17;4.93;;;2.20;;
5339;SDS011;2692;48.848;8.924;2022-10-19T12:36:38;2.67;;;1.20;;
5339;SDS011;2692;48.848;8.924;2022-10-19T12:39:16;2.40;;;1.77;;
5339;SDS011;2692;48.848;8.924;2022-10-19T12:41:55;3.07;;;1.57;;
5339;SDS011;2692;48.848;8.924;2022-10-19T12:47:06;3.57;;;1.33;;
5339;SDS011;2692;48.848;8.924;2022-10-19T12:49:36;3.87;;;1.83;;
5339;SDS011;2692;48.848;8.924;2022-10-19T12:57:35;3.50;;;1.70;;
5339;SDS011;2692;48.848;8.924;2022-10-19T13:00:17;5.93;;;1.33;;
5339;SDS011;2692;48.848;8.924;2022-10-19T13:02:44;8.10;;;2.23;;
5339;SDS011;2692;48.848;8.924;2022-10-19T13:05:21;3.77;;;1.97;;
5339;SDS011;2692;48.848;8.924;2022-10-19T13:07:47;3.63;;;1.87;;
5339;SDS011;2692;48.848;8.924;2022-10-19T13:10:24;9.23;;;1.60;;
5339;SDS011;2692;48.848;8.924;2022-10-19T13:12:51;2.80;;;1.33;;
5339;SDS011;2692;48.848;8.924;2022-10-19T13:15:47;6.40;;;2.10;;
5339;SDS011;2692;48.848;8.924;2022-10-19T13:18:12;1.60;;;0.93;;
5339;SDS011;2692;48.848;8.924;2022-10-19T13:20:51;3.10;;;1.63;;
5339;SDS011;2692;48.848;8.924;2022-10-19T13:28:53;3.00;;;1.67;;
5339;SDS011;2692;48.848;8.924;2022-10-19T13:31:26;4.23;;;2.07;;
5339;SDS011;2692;48.848;8.924;2022-10-19T13:33:53;4.50;;;2.00;;
5339;SDS011;2692;48.848;8.924;2022-10-19T13:36:19;2.90;;;1.37;;
5339;SDS011;2692;48.848;8.924;2022-10-19T13:41:24;7.83;;;2.20;;
5339;SDS011;2692;48.848;8.924;2022-10-19T13:43:59;4.07;;;2.17;;
5339;SDS011;2692;48.848;8.924;2022-10-19T13:56:57;6.33;;;1.87;;
5339;SDS011;2692;48.848;8.924;2022-10-19T14:07:43;2.20;;;1.30;;
5339;SDS011;2692;48.848;8.924;2022-10-19T14:10:27;3.90;;;1.53;;
5339;SDS011;2692;48.848;8.924;2022-10-19T14:12:53;5.63;;;2.10;;
5339;SDS011;2692;48.848;8.924;2022-10-19T14:15:29;3.60;;;2.03;;
5339;SDS011;2692;48.848;8.924;2022-10-19T14:17:56;3.93;;;2.00;;
5339;SDS011;2692;48.848;8.924;2022-10-19T14:20:35;2.87;;;1.90;;
5339;SDS011;2692;48.848;8.924;2022-10-19T14:23:18;3.10;;;1.67;;
5339;SDS011;2692;48.848;8.924;2022-10-19T14:25:49;4.70;;;2.23;;
5339;SDS011;2692;48.848;8.924;2022-10-19T14:28:15;5.20;;;2.17;;
5339;SDS011;2692;48.848;8.924;2022-10-19T14:30:41;4.00;;;1.70;;
5339;SDS011;2692;48.848;8.924;2022-10-19T14:33:08;4.10;;;1.70;;
5339;SDS011;2692;48.848;8.924;2022-10-19T14:35:38;7.30;;;2.60;;
5339;SDS011;2692;48.848;8.924;2022-10-19T14:38:05;5.53;;;1.90;;
5339;SDS011;2692;48.848;8.924;2022-10-19T14:40:33;3.07;;;1.53;;
5339;SDS011;2692;48.848;8.924;2022-10-19T14:43:12;4.03;;;2.10;;
5339;SDS011;2692;48.848;8.924;2022-10-19T14:45:43;3.90;;;1.43;;
5339;SDS011;2692;48.848;8.924;2022-10-19T14:48:16;3.77;;;1.97;;
5339;SDS011;2692;48.848;8.924;2022-10-19T14:50:44;5.80;;;1.83;;
5339;SDS011;2692;48.848;8.924;2022-10-19T14:58:44;2.83;;;1.53;;
5339;SDS011;2692;48.848;8.924;2022-10-19T15:01:16;3.27;;;1.40;;
5339;SDS011;2692;48.848;8.924;2022-10-19T15:03:43;4.03;;;2.17;;
5339;SDS011;2692;48.848;8.924;2022-10-19T15:06:12;4.33;;;1.77;;
5339;SDS011;2692;48.848;8.924;2022-10-19T15:08:45;2.83;;;1.60;;
5339;SDS011;2692;48.848;8.924;2022-10-19T15:11:21;7.70;;;1.43;;
5339;SDS011;2692;48.848;8.924;2022-10-19T15:13:54;3.60;;;1.60;;
5339;SDS011;2692;48.848;8.924;2022-10-19T15:16:32;3.70;;;1.70;;
5339;SDS011;2692;48.848;8.924;2022-10-19T15:19:29;2.87;;;1.37;;
5339;SDS011;2692;48.848;8.924;2022-10-19T15:24:38;3.57;;;1.70;;
5339;SDS011;2692;48.848;8.924;2022-10-19T15:27:17;2.90;;;1.87;;
5339;SDS011;2692;48.848;8.924;2022-10-19T15:29:53;2.40;;;1.33;;
5339;SDS011;2692;48.848;8.924;2022-10-19T15:32:24;2.63;;;1.40;;
5339;SDS011;2692;48.848;8.924;2022-10-19T15:34:52;3.93;;;2.10;;
5339;SDS011;2692;48.848;8.924;2022-10-19T15:37:19;2.80;;;1.60;;
5339;SDS011;2692;48.848;8.924;2022-10-19T15:39:46;4.10;;;2.00;;
5339;SDS011;2692;48.848;8.924;2022-10-19T15:42:53;3.53;;;1.60;;
5339;SDS011;2692;48.848;8.924;2022-10-19T15:45:25;5.07;;;1.80;;
5339;SDS011;2692;48.848;8.924;2022-10-19T15:50:47;4.07;;;2.30;;
5339;SDS011;2692;48.848;8.924;2022-10-19T15:53:14;5.80;;;2.53;;
5339;SDS011;2692;48.848;8.924;2022-10-19T15:55:39;3.30;;;2.27;;
5339;SDS011;2692;48.848;8.924;2022-10-19T15:58:05;5.53;;;1.70;;
5339;SDS011;2692;48.848;8.924;2022-10-19T16:00:30;4.77;;;2.40;;
5339;SDS011;2692;48.848;8.924;2022-10-19T16:02:55;2.43;;;1.57;;
5339;SDS011;2692;48.848;8.924;2022-10-19T16:05:21;3.13;;;2.00;;
5339;SDS011;2692;48.848;8.924;2022-10-19T16:07:46;14.47;;;2.00;;
5339;SDS011;2692;48.848;8.924;2022-10-19T16:10:13;4.37;;;2.00;;
5339;SDS011;2692;48.848;8.924;2022-10-19T16:12:40;3.93;;;1.83;;
5339;SDS011;2692;48.848;8.924;2022-10-19T16:15:06;4.53;;;2.33;;
5339;SDS011;2692;48.848;8.924;2022-10-19T16:17:32;3.73;;;2.27;;
5339;SDS011;2692;48.848;8.924;2022-10-19T16:19:58;3.00;;;1.63;;
5339;SDS011;2692;48.848;8.924;2022-10-19T16:22:23;6.13;;;2.17;;
5339;SDS011;2692;48.848;8.924;2022-10-19T16:24:48;6.70;;;2.70;;
5339;SDS011;2692;48.848;8.924;2022-10-19T16:27:14;6.13;;;2.57;;
5339;SDS011;2692;48.848;8.924;2022-10-19T16:29:40;5.93;;;2.40;;
5339;SDS011;2692;48.848;8.924;2022-10-19T16:32:06;4.47;;;2.33;;
5339;SDS011;2692;48.848;8.924;2022-10-19T16:34:32;3.53;;;1.97;;
5339;SDS011;2692;48.848;8.924;2022-10-19T16:36:57;3.20;;;1.83;;
5339;SDS011;2692;48.848;8.924;2022-10-19T16:39:22;7.27;;;2.30;;
5339;SDS011;2692;48.848;8.924;2022-10-19T16:41:49;4.73;;;2.70;;
5339;SDS011;2692;48.848;8.924;2022-10-19T16:44:14;2.83;;;2.03;;
5339;SDS011;2692;48.848;8.924;2022-10-19T16:46:40;5.53;;;2.93;;
5339;SDS011;2692;48.848;8.924;2022-10-19T16:49:05;3.80;;;2.20;;
5339;SDS011;2692;48.848;8.924;2022-10-19T16:54:06;3.10;;;2.07;;
5339;SDS011;2692;48.848;8.924;2022-10-19T16:56:33;7.23;;;2.10;;
5339;SDS011;2692;48.848;8.924;2022-10-19T16:59:00;3.23;;;1.70;;
5339;SDS011;2692;48.848;8.924;2022-10-19T17:01:27;4.77;;;2.60;;
5339;SDS011;2692;48.848;8.924;2022-10-19T17:03:53;4.23;;;2.07;;